Time;durP1;ratioP1;P1;durP2;ratioP2;P2;SDS_P1;SDS_P2;PMS_P1;PMS_P2;Temp;Humidity;BMP_temperature;BMP_pressure;BME280_temperature;BME280_humidity;BME280_pressure;Samples;Min_cycle;Max_cycle;Signal;HPM_P1;HPM_P2
2020/12/04 00:00:41;;;;;;;25.52;8.68;;;;;;;4.88;76.48;101309.58;1769365;80;21207;-64
2020/12/04 00:03:09;;;;;;;24.25;9.48;;;;;;;4.81;76.57;101309.39;1806793;78;21173;-64
2020/12/04 00:05:36;;;;;;;30.35;9.23;;;;;;;4.82;76.44;101312.45;1821109;78;21160;-64
2020/12/04 00:08:04;;;;;;;25.15;9.40;;;;;;;4.87;76.32;101311.72;1788743;80;21495;-64
2020/12/04 00:10:33;;;;;;;36.58;10.00;;;;;;;4.81;76.37;101310.69;1795041;79;21160;-65
2020/12/04 00:13:00;;;;;;;29.23;10.70;;;;;;;4.78;76.42;101310.61;1797295;78;21210;-64
2020/12/04 00:15:27;;;;;;;51.08;12.78;;;;;;;4.78;76.51;101321.94;1800263;78;21520;-64
2020/12/04 00:17:55;;;;;;;41.73;12.00;;;;;;;4.79;76.45;101327.63;1800259;79;21505;-64
2020/12/04 00:20:23;;;;;;;34.65;9.23;;;;;;;4.78;76.27;101323.25;1777708;79;21148;-64
2020/12/04 00:22:50;;;;;;;27.30;10.03;;;;;;;4.78;75.98;101326.26;1803099;78;21295;-64
2020/12/04 00:25:18;;;;;;;23.57;10.13;;;;;;;4.73;76.05;101320.50;1785428;78;22068;-64
2020/12/04 00:27:46;;;;;;;37.33;10.28;;;;;;;4.74;76.11;101327.91;1771818;79;21546;-64
2020/12/04 00:30:13;;;;;;;26.87;10.40;;;;;;;4.76;76.08;101326.23;1790958;79;21628;-64
2020/12/04 00:32:41;;;;;;;29.02;11.12;;;;;;;4.78;75.98;101319.34;1800792;78;21697;-64
2020/12/04 00:35:09;;;;;;;26.73;8.30;;;;;;;4.76;75.85;101319.27;1788768;79;21198;-64
2020/12/04 00:37:37;;;;;;;21.30;7.17;;;;;;;4.71;75.68;101323.48;1810994;78;21831;-64
2020/12/04 00:40:05;;;;;;;18.67;8.58;;;;;;;4.64;75.49;101325.45;1824332;78;22060;-64
2020/12/04 00:42:33;;;;;;;17.30;7.50;;;;;;;4.57;75.53;101317.89;1807526;79;21101;-64
2020/12/04 00:45:01;;;;;;;16.90;7.28;;;;;;;4.54;75.61;101316.95;1781433;79;21117;-64
2020/12/04 00:47:28;;;;;;;13.13;6.75;;;;;;;4.44;75.76;101315.78;1825703;77;21631;-64
2020/12/04 00:49:56;;;;;;;10.95;6.00;;;;;;;4.52;75.58;101316.02;1810666;78;21183;-64
2020/12/04 00:52:24;;;;;;;10.80;5.78;;;;;;;4.54;75.40;101314.34;1792182;78;21086;-64
2020/12/04 00:54:52;;;;;;;13.00;4.90;;;;;;;4.51;75.29;101303.38;1811184;78;21100;-64
2020/12/04 00:57:20;;;;;;;9.93;5.67;;;;;;;4.49;75.04;101316.80;1810172;78;21147;-64
2020/12/04 00:59:49;;;;;;;10.45;5.30;;;;;;;4.50;74.96;101308.57;1812424;78;21671;-64
2020/12/04 01:02:17;;;;;;;7.72;4.85;;;;;;;4.44;74.95;101306.66;1774518;80;22807;-64
2020/12/04 01:04:44;;;;;;;6.33;4.22;;;;;;;4.39;74.91;101306.55;1780963;79;21748;-64
2020/12/04 01:07:12;;;;;;;6.67;4.78;;;;;;;4.36;74.77;101295.16;1779971;79;21127;-64
2020/12/04 01:09:40;;;;;;;5.33;3.98;;;;;;;4.25;74.82;101300.05;1803966;77;21139;-64
2020/12/04 01:12:08;;;;;;;6.00;4.47;;;;;;;4.17;74.76;101292.02;1777994;80;21533;-64
2020/12/04 01:14:35;;;;;;;8.50;4.20;;;;;;;4.08;74.80;101296.95;1760642;79;22078;-64
2020/12/04 01:17:02;;;;;;;5.92;3.52;;;;;;;4.05;74.84;101303.38;1789873;79;21597;-64
2020/12/04 01:19:30;;;;;;;6.45;3.92;;;;;;;4.01;74.88;101304.59;1771675;79;21133;-64
2020/12/04 01:21:58;;;;;;;8.40;3.92;;;;;;;3.97;74.88;101300.56;1794827;79;21170;-64
2020/12/04 01:24:26;;;;;;;6.60;3.87;;;;;;;3.93;74.90;101301.30;1771560;80;21675;-64
2020/12/04 01:26:54;;;;;;;9.05;3.92;;;;;;;3.90;74.95;101298.61;1789016;79;21370;-64
2020/12/04 01:29:21;;;;;;;6.83;3.67;;;;;;;3.86;74.97;101281.58;1793564;78;22102;-64
2020/12/04 01:31:49;;;;;;;11.12;3.85;;;;;;;3.82;74.89;101291.44;1773089;79;21646;-64
2020/12/04 01:34:16;;;;;;;18.87;4.35;;;;;;;3.79;74.82;101290.05;1777781;79;21127;-64
2020/12/04 01:36:50;;;;;;;28.02;4.85;;;;;;;3.75;74.82;101292.12;1787503;78;21073;-64
2020/12/04 01:39:18;;;;;;;46.33;5.45;;;;;;;3.72;74.94;101298.09;1787321;79;22426;-64
2020/12/04 01:41:45;;;;;;;14.95;5.72;;;;;;;3.70;75.03;101295.00;1764817;80;21837;-64
2020/12/04 01:44:13;;;;;;;14.10;5.95;;;;;;;3.72;75.19;101294.63;1786374;79;21168;-64
2020/12/04 01:46:40;;;;;;;16.45;5.78;;;;;;;3.77;75.34;101297.36;1804721;78;21118;-64
2020/12/04 01:49:08;;;;;;;11.25;6.05;;;;;;;3.80;75.47;101285.30;1811881;79;21149;-63
2020/12/04 01:51:36;;;;;;;13.58;6.70;;;;;;;3.87;75.41;101275.53;1794275;79;22919;-63
2020/12/04 01:54:03;;;;;;;15.20;6.53;;;;;;;3.90;75.38;101279.97;1787961;79;21145;-63
2020/12/04 01:56:38;;;;;;;11.50;6.40;;;;;;;3.91;75.39;101289.95;1781839;79;21596;-64
2020/12/04 01:59:01;;;;;;;21.17;6.65;;;;;;;3.84;75.55;101288.89;1778333;79;21583;-64
2020/12/04 02:01:29;;;;;;;21.70;6.53;;;;;;;3.81;75.58;101287.06;1782228;80;21173;-64
2020/12/04 02:03:56;;;;;;;16.25;7.35;;;;;;;3.81;75.37;101292.27;1780962;79;23337;-64
2020/12/04 02:06:31;;;;;;;13.85;7.00;;;;;;;3.82;75.30;101286.23;1814683;78;21952;-64
2020/12/04 02:09:04;;;;;;;17.32;7.70;;;;;;;3.85;75.43;101277.64;1796040;79;21165;-64
2020/12/04 02:11:31;;;;;;;21.35;7.70;;;;;;;3.89;75.46;101282.52;1793334;79;21174;-63
2020/12/04 02:13:59;;;;;;;13.83;8.43;;;;;;;3.91;75.34;101286.05;1814167;78;21613;-64
2020/12/04 02:16:26;;;;;;;11.50;7.12;;;;;;;4.30;73.97;101290.64;1814688;78;22853;-63
2020/12/04 02:18:54;;;;;;;14.28;7.80;;;;;;;3.72;75.64;101291.59;1816476;78;21643;-64
2020/12/04 02:21:21;;;;;;;11.05;7.60;;;;;;;3.90;75.04;101294.70;1798485;78;21491;-64
2020/12/04 02:23:50;;;;;;;13.95;7.87;;;;;;;3.77;75.54;101294.75;1805617;78;21164;-64
2020/12/04 02:26:21;;;;;;;25.20;8.68;;;;;;;3.75;75.92;101287.31;1819999;78;21226;-64
2020/12/04 02:28:49;;;;;;;18.95;8.10;;;;;;;3.73;75.85;101299.00;1822956;78;21199;-63
2020/12/04 02:31:16;;;;;;;13.88;8.10;;;;;;;3.72;75.93;101298.53;1812035;78;22001;-64
2020/12/04 02:33:45;;;;;;;11.25;7.78;;;;;;;3.71;75.92;101287.22;1784222;80;21159;-64
2020/12/04 02:36:12;;;;;;;12.73;8.80;;;;;;;3.76;75.87;101293.85;1794014;79;21164;-64
2020/12/04 02:38:40;;;;;;;12.23;8.35;;;;;;;3.74;75.82;101281.64;1784951;79;21561;-64
2020/12/04 02:41:08;;;;;;;12.07;9.63;;;;;;;3.74;75.96;101282.54;1794657;78;23528;-63
2020/12/04 02:43:36;;;;;;;12.95;9.88;;;;;;;3.81;76.10;101290.97;1795491;79;21072;-64
2020/12/04 02:46:07;;;;;;;13.03;9.75;;;;;;;3.84;76.17;101293.67;1793992;79;21672;-64
2020/12/04 02:48:34;;;;;;;13.25;9.88;;;;;;;3.85;76.23;101280.25;1767358;81;21575;-64
2020/12/04 02:51:03;;;;;;;14.50;9.85;;;;;;;3.96;76.08;101276.25;1810339;78;21576;-64
2020/12/04 02:53:30;;;;;;;15.00;10.23;;;;;;;4.12;75.81;101277.56;1792591;78;21192;-64
2020/12/04 02:55:57;;;;;;;15.20;10.48;;;;;;;4.13;75.91;101277.13;1804889;78;21085;-64
2020/12/04 02:58:26;;;;;;;16.05;11.15;;;;;;;4.20;75.87;101279.48;1799815;77;21137;-64
2020/12/04 03:00:55;;;;;;;17.57;11.57;;;;;;;4.23;75.84;101280.47;1797891;78;21098;-64
2020/12/04 03:03:23;;;;;;;15.35;9.55;;;;;;;4.27;75.77;101275.81;1769081;79;21173;-64
2020/12/04 03:05:50;;;;;;;14.18;9.88;;;;;;;4.35;75.63;101275.14;1767282;79;23584;-64
2020/12/04 03:08:18;;;;;;;13.98;10.65;;;;;;;4.41;75.56;101274.88;1771502;79;21923;-64
2020/12/04 03:10:45;;;;;;;16.17;10.70;;;;;;;4.42;75.75;101282.27;1792394;79;21520;-64
2020/12/04 03:13:13;;;;;;;15.13;10.50;;;;;;;4.56;75.55;101268.33;1774717;80;21589;-64
2020/12/04 03:15:42;;;;;;;18.17;11.38;;;;;;;4.62;75.54;101267.19;1771821;80;21081;-64
2020/12/04 03:18:10;;;;;;;18.07;12.28;;;;;;;4.69;75.53;101270.39;1772477;79;21209;-64
2020/12/04 03:20:38;;;;;;;17.65;11.40;;;;;;;4.76;75.51;101263.20;1782506;80;21197;-64
2020/12/04 03:23:05;;;;;;;16.70;11.88;;;;;;;4.83;75.44;101268.17;1776342;80;21522;-64
2020/12/04 03:25:33;;;;;;;21.60;12.82;;;;;;;4.90;75.37;101263.98;1781436;79;21161;-64
2020/12/04 03:28:01;;;;;;;19.80;12.05;;;;;;;4.97;75.35;101267.61;1763811;80;21589;-64
2020/12/04 03:30:28;;;;;;;20.90;12.58;;;;;;;5.01;75.34;101259.02;1765536;80;21311;-64
2020/12/04 03:32:56;;;;;;;19.90;12.50;;;;;;;5.07;75.28;101265.70;1760980;80;21124;-64
2020/12/04 03:35:24;;;;;;;22.10;13.08;;;;;;;5.00;75.55;101264.68;1780292;80;21080;-64
2020/12/04 03:37:51;;;;;;;23.47;13.25;;;;;;;5.03;75.64;101260.84;1765587;80;21562;-64
2020/12/04 03:40:19;;;;;;;22.50;14.38;;;;;;;5.08;75.61;101267.91;1767657;80;21627;-64
2020/12/04 03:42:46;;;;;;;23.42;13.60;;;;;;;5.11;75.68;101264.94;1764958;80;23594;-64
2020/12/04 03:45:14;;;;;;;28.52;13.05;;;;;;;5.15;75.62;101266.77;1777165;79;21913;-64
2020/12/04 03:47:41;;;;;;;30.92;13.98;;;;;;;5.19;75.65;101267.31;1772760;80;21135;-64
2020/12/04 03:50:09;;;;;;;24.47;12.03;;;;;;;5.24;75.62;101271.77;1777918;80;21162;-64
2020/12/04 03:52:37;;;;;;;23.10;14.23;;;;;;;5.23;75.78;101267.39;1775063;80;21144;-64
2020/12/04 03:55:06;;;;;;;21.17;14.45;;;;;;;;;;1779718;79;21926;-64
2020/12/04 03:57:33;;;;;;;22.22;14.15;;;;;;;5.26;75.85;101264.86;1767215;80;21150;-64
2020/12/04 04:00:01;;;;;;;22.75;14.03;;;;;;;5.37;75.56;101260.74;1761872;80;21135;-64
2020/12/04 04:02:31;;;;;;;35.15;13.75;;;;;;;5.48;75.28;101258.41;1767540;79;21145;-64
2020/12/04 04:04:59;;;;;;;29.40;13.13;;;;;;;5.56;75.04;101258.13;1790175;79;21440;-64
2020/12/04 04:07:26;;;;;;;27.77;13.03;;;;;;;5.60;74.95;101252.12;1776547;79;22019;-64
2020/12/04 04:09:54;;;;;;;22.82;12.60;;;;;;;5.64;74.91;101251.79;1798420;79;21144;-64
2020/12/04 04:12:22;;;;;;;25.92;13.75;;;;;;;5.66;74.91;101256.19;1780501;79;21164;-64
2020/12/04 04:14:49;;;;;;;23.65;13.45;;;;;;;5.63;75.10;101255.25;1801254;78;22055;-64
2020/12/04 04:17:17;;;;;;;29.92;13.55;;;;;;;5.66;75.16;101259.23;1810234;78;21158;-64
2020/12/04 04:19:44;;;;;;;32.95;13.83;;;;;;;5.69;75.22;101259.31;1803700;78;21842;-64
2020/12/04 04:22:12;;;;;;;25.27;12.30;;;;;;;5.74;75.16;101260.70;1789640;79;21600;-64
2020/12/04 04:24:40;;;;;;;25.40;14.43;;;;;;;5.79;75.14;101249.93;1800466;79;21167;-64
2020/12/04 04:27:07;;;;;;;25.65;12.82;;;;;;;5.83;75.20;101256.09;1791514;79;21521;-64
2020/12/04 04:29:35;;;;;;;28.67;13.32;;;;;;;5.73;75.61;101258.53;1799212;79;21144;-64
2020/12/04 04:32:02;;;;;;;39.92;15.03;;;;;;;5.74;75.67;101253.73;1800394;78;22789;-64
2020/12/04 04:34:30;;;;;;;27.55;14.70;;;;;;;5.75;75.80;101251.58;1797783;78;21913;-64
2020/12/04 04:36:57;;;;;;;25.30;14.73;;;;;;;5.78;75.87;101257.31;1803900;78;21553;-63
2020/12/04 04:39:25;;;;;;;27.55;15.90;;;;;;;5.82;75.88;101253.91;1817850;78;21118;-64
2020/12/04 04:41:56;;;;;;;27.35;16.37;;;;;;;5.90;75.90;101251.05;1791227;78;21573;-64
2020/12/04 04:44:25;;;;;;;30.97;15.25;;;;;;;5.92;75.95;101250.66;1800116;78;21360;-64
2020/12/04 04:47:03;;;;;;;38.17;16.52;;;;;;;5.96;75.96;101244.61;1811390;78;21161;-64
2020/12/04 04:49:37;;;;;;;31.62;16.82;;;;;;;5.99;76.02;101249.45;1791305;78;21588;-64
2020/12/04 04:52:06;;;;;;;35.75;17.45;;;;;;;5.95;76.30;101250.72;1777774;79;21513;-64
2020/12/04 04:54:39;;;;;;;40.98;17.67;;;;;;;5.95;76.47;101253.34;1791451;78;21121;-64
2020/12/04 04:57:07;;;;;;;34.63;17.37;;;;;;;6.06;76.29;101253.58;1794512;78;21538;-63
2020/12/04 04:59:36;;;;;;;30.80;17.42;;;;;;;6.18;75.85;101255.55;1813557;78;21133;-63
2020/12/04 05:02:04;;;;;;;26.85;16.12;;;;;;;6.18;76.00;101254.69;1781483;79;21577;-63
2020/12/04 05:04:57;;;;;;;29.07;18.37;;;;;;;6.17;76.17;101256.41;1800834;78;21984;-64
2020/12/04 05:07:29;;;;;;;44.50;16.02;;;;;;;6.19;76.18;101262.55;1766690;79;21155;-64
2020/12/04 05:10:18;;;;;;;27.52;16.32;;;;;;;6.23;76.27;101256.94;1790428;78;23583;-64
2020/12/04 05:12:59;;;;;;;33.18;18.55;;;;;;;6.32;76.17;101261.05;1791225;79;21093;-63
2020/12/04 05:15:28;;;;;;;34.67;18.30;;;;;;;6.35;76.06;101256.31;1765300;80;21501;-64
2020/12/04 05:18:14;;;;;;;32.08;18.42;;;;;;;6.37;76.03;101256.79;1800608;78;21177;-64
2020/12/04 05:20:55;;;;;;;34.33;19.35;;;;;;;6.38;76.00;101249.40;1802065;78;21561;-64
2020/12/04 05:23:24;;;;;;;34.43;19.02;;;;;;;6.39;76.01;101250.30;1786441;78;21419;-64
2020/12/04 05:25:53;;;;;;;30.10;18.85;;;;;;;6.40;76.04;101256.85;1812750;78;21151;-64
2020/12/04 05:28:26;;;;;;;31.90;20.00;;;;;;;6.42;76.05;101253.38;1796763;78;21130;-63
2020/12/04 05:31:10;;;;;;;32.93;18.20;;;;;;;6.42;76.09;101252.94;1813946;78;21544;-63
2020/12/04 05:33:40;;;;;;;34.65;19.57;;;;;;;6.44;76.20;101259.08;1798943;78;21073;-64
2020/12/04 05:36:08;;;;;;;39.20;21.33;;;;;;;6.49;76.22;101264.42;1804835;78;23538;-64
2020/12/04 05:38:36;;;;;;;33.48;18.75;;;;;;;6.52;76.28;101260.55;1798531;78;21993;-64
2020/12/04 05:41:08;;;;;;;35.43;18.27;;;;;;;6.54;76.27;101258.41;1799291;78;21588;-63
2020/12/04 05:43:39;;;;;;;42.10;22.20;;;;;;;6.53;76.35;101261.88;1806958;78;21077;-64
2020/12/04 05:46:19;;;;;;;41.08;21.17;;;;;;;6.54;76.37;101264.95;1788842;78;21146;-64
2020/12/04 05:49:04;;;;;;;46.53;22.55;;;;;;;6.51;76.48;101264.02;1821800;78;21195;-64
2020/12/04 05:51:33;;;;;;;40.58;21.82;;;;;;;6.54;76.52;101270.18;1821340;78;21983;-63
2020/12/04 05:54:01;;;;;;;47.98;23.52;;;;;;;6.55;76.56;101273.69;1812647;78;21141;-63
2020/12/04 05:56:32;;;;;;;45.20;21.52;;;;;;;6.57;76.57;101271.98;1782620;80;21882;-63
2020/12/04 05:59:03;;;;;;;47.27;22.22;;;;;;;6.59;76.48;101267.67;1789167;79;21243;-63
2020/12/04 06:01:30;;;;;;;38.92;21.37;;;;;;;6.61;76.48;101268.58;1774951;78;23599;-62
2020/12/04 06:03:59;;;;;;;35.08;22.93;;;;;;;6.61;76.49;101269.89;1819333;78;21121;-63
2020/12/04 06:06:29;;;;;;;40.08;21.62;;;;;;;6.63;76.46;101274.69;1778987;79;21497;-62
2020/12/04 06:09:05;;;;;;;41.08;20.68;;;;;;;6.59;76.55;101269.38;1822811;77;21093;-63
2020/12/04 06:11:42;;;;;;;41.40;20.17;;;;;;;6.52;76.78;101273.19;1811654;78;21110;-63
2020/12/04 06:17:04;;;;;;;43.00;20.32;;;;;;;6.51;77.09;101270.12;1865220;74;28143;-61
2020/12/04 06:19:37;;;;;;;35.08;18.90;;;;;;;6.48;77.07;101264.83;1818657;77;21121;-62
2020/12/04 06:22:11;;;;;;;42.08;18.77;;;;;;;6.52;76.92;101264.03;1799041;77;22192;-62
2020/12/04 06:24:59;;;;;;;35.35;20.00;;;;;;;6.46;77.12;101265.22;1818652;77;21540;-63
2020/12/04 06:27:44;;;;;;;31.97;18.75;;;;;;;6.45;77.24;101271.31;1815534;77;21501;-62
2020/12/04 06:30:17;;;;;;;28.27;18.40;;;;;;;6.47;77.31;101264.81;1823730;77;21136;-62
2020/12/04 06:32:49;;;;;;;37.65;19.45;;;;;;;6.46;77.37;101266.53;1775516;80;21087;-62
2020/12/04 06:35:43;;;;;;;33.58;19.85;;;;;;;6.49;77.43;101268.34;1772598;80;21353;-62
2020/12/04 06:38:38;;;;;;;35.05;19.00;;;;;;;6.51;77.49;101276.66;1779988;78;21188;-61
2020/12/04 06:41:43;;;;;;;35.95;17.73;;;;;;;6.54;77.46;101274.55;1790780;79;21082;-62
2020/12/04 06:44:19;;;;;;;31.37;17.27;;;;;;;6.57;77.48;101278.94;1767828;80;21644;-63
2020/12/04 06:46:59;;;;;;;44.20;21.80;;;;;;;6.57;77.43;101281.14;1749773;80;21052;-62
2020/12/04 06:49:39;;;;;;;31.33;18.65;;;;;;;6.61;77.39;101287.30;1757513;80;21196;-63
2020/12/04 06:52:21;;;;;;;34.27;19.05;;;;;;;6.61;77.46;101290.81;1773176;80;21100;-62
2020/12/04 06:54:50;;;;;;;33.85;19.27;;;;;;;6.61;77.59;101294.73;1760940;80;21553;-62
2020/12/04 06:57:21;;;;;;;39.90;22.55;;;;;;;6.67;77.49;101293.52;1791097;78;21132;-62
2020/12/04 06:59:48;;;;;;;42.80;22.80;;;;;;;6.72;77.44;101289.70;1763796;80;21159;-63
2020/12/04 07:02:18;;;;;;;51.00;23.30;;;;;;;6.73;77.44;101287.53;1766887;79;23594;-63
2020/12/04 07:04:48;;;;;;;42.48;23.80;;;;;;;6.74;77.37;101288.40;1770193;80;21173;-63
2020/12/04 07:07:26;;;;;;;44.90;22.10;;;;;;;6.77;77.30;101296.30;1753056;81;21149;-63
2020/12/04 07:09:56;;;;;;;47.60;23.27;;;;;;;6.77;77.29;101293.69;1758091;80;21901;-64
2020/12/04 07:12:26;;;;;;;41.13;21.07;;;;;;;6.77;77.33;101290.66;1775079;80;21172;-62
2020/12/04 07:14:59;;;;;;;40.92;21.62;;;;;;;6.75;77.45;101293.67;1780428;80;23160;-62
2020/12/04 07:17:28;;;;;;;42.80;21.17;;;;;;;6.82;77.24;101299.89;1777810;80;21094;-62
2020/12/04 07:19:58;;;;;;;35.98;19.40;;;;;;;6.81;77.27;101298.13;1782080;80;21065;-62
2020/12/04 07:22:26;;;;;;;39.48;22.32;;;;;;;6.76;77.53;101298.47;1768010;80;21076;-62
2020/12/04 07:24:55;;;;;;;36.15;21.07;;;;;;;6.79;77.62;101306.38;1751005;80;21623;-62
2020/12/04 07:27:26;;;;;;;40.48;20.92;;;;;;;6.78;77.80;101302.89;1759180;80;22263;-62
2020/12/04 07:29:54;;;;;;;41.92;21.42;;;;;;;6.78;77.91;101293.73;1773140;80;21141;-63
2020/12/04 07:32:22;;;;;;;39.20;20.68;;;;;;;6.83;77.86;101289.88;1768226;80;21186;-63
2020/12/04 07:34:50;;;;;;;37.40;20.65;;;;;;;6.83;77.80;101292.09;1746122;80;21080;-62
2020/12/04 07:37:18;;;;;;;40.80;22.37;;;;;;;6.75;78.12;101289.75;1766059;80;21153;-63
2020/12/04 07:39:46;;;;;;;39.23;20.65;;;;;;;6.76;78.12;101288.00;1760800;80;21517;-63
2020/12/04 07:42:15;;;;;;;37.28;19.75;;;;;;;6.74;78.26;101281.45;1756522;80;21125;-63
2020/12/04 07:47:21;;;;;;;32.88;19.45;;;;;;;6.79;78.30;101289.37;1827175;76;28277;-62
2020/12/04 07:52:35;;;;;;;35.48;20.65;;;;;;;6.78;78.40;101291.13;1853250;75;28606;-62
2020/12/04 07:55:06;;;;;;;40.10;21.82;;;;;;;6.84;78.10;101294.27;1800302;77;21099;-64
2020/12/04 07:57:44;;;;;;;39.20;20.85;;;;;;;6.85;78.06;101295.58;1809958;79;21370;-65
2020/12/04 08:00:14;;;;;;;33.40;20.17;;;;;;;6.85;78.05;101303.44;1802360;77;20967;-64
2020/12/04 08:02:42;;;;;;;38.33;21.60;;;;;;;6.87;78.03;101302.17;1771084;80;21154;-62
2020/12/04 08:05:22;;;;;;;36.90;21.57;;;;;;;6.83;78.16;101299.04;1765752;79;21623;-62
2020/12/04 08:07:52;;;;;;;41.80;21.45;;;;;;;6.91;77.88;101300.06;1734019;82;21481;-63
2020/12/04 08:10:20;;;;;;;;;;;;;;;6.92;77.90;101300.93;1779189;80;21854;-63
2020/12/04 08:12:49;;;;;;;36.55;18.75;;;;;;;6.91;77.91;101301.78;1783399;80;20215;-63
2020/12/04 08:18:05;;;;;;;36.77;20.10;;;;;;;6.99;77.97;101298.88;1859707;76;28595;-61
2020/12/04 08:20:33;;;;;;;44.18;21.27;;;;;;;6.99;78.01;101302.80;1824362;77;21085;-63
2020/12/04 08:23:01;;;;;;;31.90;19.65;;;;;;;7.03;77.87;101303.31;1820282;77;21641;-64
2020/12/04 08:25:30;;;;;;;39.10;19.90;;;;;;;7.18;77.40;101298.76;1824207;78;21182;-64
2020/12/04 08:27:58;;;;;;;35.90;20.05;;;;;;;7.21;77.23;101295.33;1825284;77;21088;-64
2020/12/04 08:30:28;;;;;;;39.05;20.72;;;;;;;7.25;77.08;101285.36;1820993;77;21070;-64
2020/12/04 08:33:03;;;;;;;35.73;21.20;;;;;;;7.29;77.00;101287.14;1760779;80;21632;-64
2020/12/04 08:35:39;;;;;;;41.60;21.75;;;;;;;7.24;77.15;101284.46;1758524;80;21211;-64
2020/12/04 08:38:13;;;;;;;41.10;20.02;;;;;;;7.18;77.39;101285.67;1757497;80;21066;-64
2020/12/04 08:40:49;;;;;;;36.38;20.60;;;;;;;7.20;77.43;101277.86;1759348;80;21609;-64
2020/12/04 08:43:23;;;;;;;39.25;19.80;;;;;;;7.21;77.47;101279.17;1758843;80;21134;-64
2020/12/04 08:45:54;;;;;;;31.70;18.30;;;;;;;7.21;77.55;101277.86;1757378;80;21156;-64
2020/12/04 08:48:25;;;;;;;38.53;19.62;;;;;;;7.33;77.28;101279.78;1752424;80;21196;-64
2020/12/04 08:50:59;;;;;;;31.52;17.87;;;;;;;7.29;77.47;101285.83;1757916;80;21129;-64
2020/12/04 08:53:28;;;;;;;34.78;19.35;;;;;;;7.27;77.59;101288.44;1757015;80;21213;-64
2020/12/04 08:55:58;;;;;;;43.48;19.05;;;;;;;7.28;77.78;101288.89;1756690;80;21129;-64
2020/12/04 08:58:27;;;;;;;47.20;20.60;;;;;;;7.34;77.67;101288.09;1755178;81;21097;-61
2020/12/04 09:00:58;;;;;;;33.75;18.20;;;;;;;7.36;77.76;101292.06;1762332;80;21813;-63
2020/12/04 09:03:26;;;;;;;36.70;20.15;;;;;;;7.37;77.75;101286.84;1780884;80;21145;-63
2020/12/04 09:05:55;;;;;;;35.90;18.80;;;;;;;7.43;77.58;101290.86;1787581;79;21106;-62
2020/12/04 09:08:23;;;;;;;37.08;19.55;;;;;;;7.51;77.17;101287.04;1776697;80;21129;-62
2020/12/04 09:10:51;;;;;;;32.85;20.32;;;;;;;7.52;77.15;101291.42;1787537;80;21132;-62
2020/12/04 09:13:19;;;;;;;33.90;19.27;;;;;;;7.50;77.31;101288.34;1782970;79;21202;-62
2020/12/04 09:15:48;;;;;;;45.75;20.70;;;;;;;7.46;77.42;101286.12;1775712;80;21488;-62
2020/12/04 09:18:16;;;;;;;38.58;20.50;;;;;;;7.47;77.35;101283.05;1786099;79;21404;-63
2020/12/04 09:20:44;;;;;;;34.58;19.55;;;;;;;7.50;77.29;101270.00;1790126;79;21101;-62
2020/12/04 09:23:11;;;;;;;47.65;20.70;;;;;;;7.49;77.21;101266.52;1785325;80;21145;-62
2020/12/04 09:25:39;;;;;;;33.40;19.12;;;;;;;7.46;77.30;101273.44;1782691;80;23527;-62
2020/12/04 09:28:08;;;;;;;41.00;20.92;;;;;;;7.44;77.39;101269.50;1782026;80;21180;-62
2020/12/04 09:30:36;;;;;;;40.00;20.35;;;;;;;7.48;77.35;101263.86;1784453;80;21165;-62
2020/12/04 09:33:04;;;;;;;44.33;19.05;;;;;;;7.49;77.45;101254.73;1783145;79;21050;-63
2020/12/04 09:35:32;;;;;;;44.77;18.62;;;;;;;7.50;77.40;101255.19;1784114;80;21600;-63
2020/12/04 09:38:00;;;;;;;37.95;20.17;;;;;;;7.51;77.35;101261.29;1784342;79;23515;-63
2020/12/04 09:40:28;;;;;;;44.27;21.07;;;;;;;7.50;77.37;101260.84;1784456;80;21144;-62
2020/12/04 09:42:56;;;;;;;33.38;18.52;;;;;;;7.50;77.45;101256.91;1773937;79;21097;-62
2020/12/04 09:45:23;;;;;;;40.03;18.02;;;;;;;7.50;77.40;101252.56;1771957;80;21850;-62
2020/12/04 09:47:51;;;;;;;39.00;20.27;;;;;;;7.49;77.54;101256.45;1784834;79;21560;-63
2020/12/04 09:50:18;;;;;;;40.63;20.68;;;;;;;7.45;77.65;101251.61;1784772;80;22622;-63
2020/12/04 09:52:46;;;;;;;51.13;20.25;;;;;;;7.42;77.73;101247.64;1772220;79;21784;-63
2020/12/04 09:55:14;;;;;;;45.80;19.62;;;;;;;7.48;77.66;101250.35;1781720;80;21561;-62
2020/12/04 09:57:43;;;;;;;40.67;20.75;;;;;;;7.46;77.77;101244.20;1783976;79;21120;-64
2020/12/04 10:00:11;;;;;;;31.25;19.10;;;;;;;7.51;77.65;101242.95;1784732;80;21176;-63
2020/12/04 10:02:40;;;;;;;33.90;19.35;;;;;;;7.50;77.74;101246.02;1781227;79;21199;-64
2020/12/04 10:05:07;;;;;;;42.17;21.27;;;;;;;7.58;77.48;101242.19;1756726;80;21605;-63
2020/12/04 10:07:35;;;;;;;38.58;19.60;;;;;;;7.57;77.60;101242.59;1783807;80;21477;-65
2020/12/04 10:10:04;;;;;;;34.23;19.73;;;;;;;7.52;77.86;101248.20;1774642;80;21168;-63
2020/12/04 10:12:32;;;;;;;36.00;18.80;;;;;;;7.60;77.85;101250.95;1774946;80;21650;-63
2020/12/04 10:14:59;;;;;;;31.50;19.05;;;;;;;7.67;77.65;101249.28;1784901;80;22732;-63
2020/12/04 10:17:27;;;;;;;42.55;21.52;;;;;;;7.67;77.51;101248.87;1768609;80;21078;-63
2020/12/04 10:19:55;;;;;;;36.20;20.32;;;;;;;7.71;77.61;101251.09;1768112;80;21061;-63
2020/12/04 10:22:22;;;;;;;46.23;19.82;;;;;;;7.67;77.64;101255.42;1776129;79;21831;-63
2020/12/04 10:24:50;;;;;;;40.05;20.25;;;;;;;7.66;77.66;101243.59;1776798;80;21571;-64
2020/12/04 10:27:18;;;;;;;33.35;20.65;;;;;;;7.72;77.58;101239.33;1773780;80;21375;-63
2020/12/04 10:29:47;;;;;;;46.15;19.87;;;;;;;7.75;77.54;101243.72;1764583;80;21526;-63
2020/12/04 10:32:16;;;;;;;35.70;20.62;;;;;;;7.77;77.53;101238.48;1777416;79;21074;-63
2020/12/04 10:34:44;;;;;;;48.78;21.52;;;;;;;7.79;77.53;101240.70;1778632;80;21145;-64
2020/12/04 10:37:11;;;;;;;42.23;19.85;;;;;;;7.86;77.28;101237.30;1777668;79;21134;-63
2020/12/04 10:39:40;;;;;;;40.25;19.17;;;;;;;7.89;77.19;101234.72;1779893;80;21349;-64
2020/12/04 10:42:08;;;;;;;48.02;21.35;;;;;;;7.86;77.24;101233.37;1777251;80;21912;-64
2020/12/04 10:44:36;;;;;;;37.60;18.87;;;;;;;7.88;77.28;101231.23;1780038;80;21562;-64
2020/12/04 10:47:04;;;;;;;39.27;17.92;;;;;;;7.93;77.20;101232.59;1778390;80;21051;-64
2020/12/04 10:49:32;;;;;;;37.55;20.23;;;;;;;7.92;77.27;101228.65;1780060;80;21641;-64
2020/12/04 10:52:00;;;;;;;45.52;20.35;;;;;;;7.94;77.27;101225.62;1779945;79;22891;-64
2020/12/04 10:54:28;;;;;;;46.55;19.60;;;;;;;7.95;77.31;101215.14;1779967;80;21142;-64
2020/12/04 10:56:56;;;;;;;39.23;18.67;;;;;;;7.95;77.37;101218.20;1757868;80;21092;-64
2020/12/04 10:59:24;;;;;;;42.65;18.62;;;;;;;7.98;77.28;101220.83;1775918;80;21122;-64
2020/12/04 11:07:15;;;;;;;33.08;21.17;;;;;;;7.89;77.58;101219.88;1815537;76;21113;-63
2020/12/04 11:09:46;;;;;;;37.45;20.55;;;;;;;7.88;77.61;101208.05;1827921;77;21391;-63
2020/12/04 11:12:14;;;;;;;42.58;22.95;;;;;;;7.89;77.68;101212.44;1825684;77;21604;-63
2020/12/04 11:14:43;;;;;;;40.43;19.85;;;;;;;7.89;77.64;101209.40;1828043;77;21653;-63
2020/12/04 11:17:11;;;;;;;46.08;21.65;;;;;;;7.78;78.12;101207.48;1825844;77;21059;-63
2020/12/04 11:19:41;;;;;;;;;;;;;;;7.82;78.00;101211.91;1835601;77;21117;-64
2020/12/04 11:22:09;;;;;;;39.95;20.75;;;;;;;7.77;78.08;101213.58;1838358;77;21425;-64
2020/12/04 11:24:37;;;;;;;38.88;19.73;;;;;;;7.76;78.16;101220.58;1826802;77;21114;-64
2020/12/04 11:27:05;;;;;;;33.75;21.97;;;;;;;7.79;78.13;101217.11;1826966;77;21191;-63
2020/12/04 11:29:33;;;;;;;34.48;19.85;;;;;;;7.79;78.09;101214.07;1825630;78;21145;-64
2020/12/04 11:32:01;;;;;;;36.30;21.77;;;;;;;7.76;78.11;101217.96;1826395;77;21512;-63
2020/12/04 11:34:30;;;;;;;41.13;23.70;;;;;;;7.78;78.04;101212.73;1825935;78;21345;-63
2020/12/04 11:36:58;;;;;;;50.70;25.62;;;;;;;7.79;78.07;101213.17;1825480;77;21124;-64
2020/12/04 11:39:25;;;;;;;42.65;27.22;;;;;;;7.79;78.02;101215.80;1833167;77;21149;-63
2020/12/04 11:41:53;;;;;;;41.80;26.70;;;;;;;7.81;77.77;101220.22;1841850;77;21141;-63
2020/12/04 11:44:21;;;;;;;46.02;25.77;;;;;;;7.86;77.93;101225.50;1756127;80;21536;-63
2020/12/04 11:46:51;;;;;;;46.63;28.62;;;;;;;7.80;78.07;101218.87;1811425;78;22391;-63